createdAt,value
2023-03-18T00:04:13.714Z,100946.47
2023-03-18T00:09:15.925Z,100988.59
2023-03-18T00:14:19.696Z,100849.59
2023-03-18T00:19:22.095Z,101013.50
2023-03-18T00:24:25.299Z,100992.06
2023-03-18T00:29:27.496Z,101019.28
2023-03-18T00:34:29.693Z,101020.81
2023-03-18T00:39:33.286Z,100973.19
2023-03-18T00:44:35.556Z,100960.19
2023-03-18T00:49:38.149Z,100937.69
2023-03-18T00:54:40.408Z,100985.56
2023-03-18T01:00:01.524Z,101008.94
2023-03-18T01:05:05.852Z,101032.09
2023-03-18T01:10:09.467Z,101014.31
2023-03-18T01:15:14.624Z,101039.50
2023-03-18T01:20:19.746Z,101044.50
2023-03-18T01:25:26.131Z,100956.63
2023-03-18T01:30:31.097Z,101008.59
2023-03-18T01:35:35.998Z,101045.91
2023-03-18T01:40:41.037Z,101032.34
2023-03-18T01:45:54.590Z,101070.44
2023-03-18T01:51:01.032Z,100938.69
2023-03-18T01:56:04.164Z,101082.69
2023-03-18T02:01:33.820Z,101086.28
2023-03-18T02:06:39.861Z,101008.06
2023-03-18T02:11:45.085Z,101062.50
2023-03-18T02:16:54.206Z,101060.69
2023-03-18T02:22:14.039Z,101112.47
2023-03-18T02:27:21.989Z,101105.41
2023-03-18T02:32:29.550Z,100996.88
2023-03-18T02:37:31.777Z,101080.19
2023-03-18T02:42:34.914Z,101039.81
2023-03-18T02:47:38.814Z,101131.19
2023-03-18T02:52:41.085Z,101136.03
2023-03-18T02:57:43.392Z,101107.28
2023-03-18T03:02:45.771Z,101025.16
2023-03-18T03:07:48.348Z,101135.25
2023-03-18T03:12:51.714Z,101064.88
2023-03-18T03:17:55.537Z,101057.06
2023-03-18T03:22:58.209Z,101148.75
2023-03-18T03:28:00.591Z,101129.41
2023-03-18T03:33:02.985Z,101070.81
2023-03-18T03:38:05.912Z,101152.78
2023-03-18T03:43:08.168Z,101021.94
2023-03-18T03:48:10.468Z,101128.97
2023-03-18T03:53:12.734Z,101161.59
2023-03-18T03:58:15.375Z,101127.81
2023-03-18T04:03:18.977Z,101094.25
2023-03-18T04:08:21.974Z,101123.53
2023-03-18T04:13:24.983Z,101097.50
2023-03-18T04:18:28.700Z,101176.22
2023-03-18T04:23:33.339Z,101111.06
2023-03-18T04:28:35.630Z,101148.69
2023-03-18T04:33:40.090Z,101140.63
2023-03-18T04:38:42.543Z,101151.66
2023-03-18T04:43:45.814Z,101177.78
2023-03-18T04:48:48.216Z,101172.97
2023-03-18T04:53:50.976Z,101147.25
2023-03-18T04:58:53.515Z,101189.22
2023-03-18T05:04:02.193Z,101163.50
2023-03-18T05:09:13.584Z,101158.16
2023-03-18T05:14:17.610Z,101109.47
2023-03-18T05:19:22.760Z,100918.09
2023-03-18T05:24:33.516Z,101229.38
2023-03-18T05:29:38.754Z,101139.22
2023-03-18T05:34:47.734Z,101218.84
2023-03-18T05:39:50.805Z,101191.63
2023-03-18T05:44:56.845Z,101137.03
2023-03-18T05:50:01.893Z,101161.44
2023-03-18T05:55:06.415Z,101228.72
2023-03-18T06:00:13.792Z,101228.31
2023-03-18T06:05:21.406Z,101154.66
2023-03-18T06:10:25.412Z,101206.13
2023-03-18T06:15:28.238Z,101186.06
2023-03-18T06:20:32.517Z,101234.31
2023-03-18T06:25:35.255Z,101168.41
2023-03-18T06:30:37.833Z,101238.69
2023-03-18T06:35:40.894Z,101009.88
2023-03-18T06:40:46.748Z,101096.56
2023-03-18T06:45:49.265Z,101202.06
2023-03-18T06:50:51.684Z,101197.44
2023-03-18T06:56:02.578Z,101197.19
2023-03-18T07:01:12.895Z,101235.53
2023-03-18T07:06:19.512Z,101153.25
2023-03-18T07:11:23.438Z,101101.06
2023-03-18T07:16:30.947Z,100808.63
2023-03-18T07:21:34.222Z,101060.47
2023-03-18T07:26:38.684Z,101192.81
2023-03-18T07:31:44.702Z,101233.09
2023-03-18T07:36:47.186Z,101193.94
2023-03-18T07:41:51.908Z,100826.88
2023-03-18T07:47:00.361Z,100808.59
2023-03-18T07:52:02.866Z,100766.53
2023-03-18T07:57:05.650Z,100814.28
2023-03-18T08:02:09.191Z,101141.00
2023-03-18T08:07:11.864Z,100737.94
2023-03-18T08:12:15.306Z,101132.28
2023-03-18T08:17:19.226Z,100963.31
2023-03-18T08:22:21.789Z,100701.00
2023-03-18T08:27:25.473Z,100404.81
2023-03-18T08:32:28.286Z,100563.34
2023-03-18T08:37:30.738Z,100934.66
2023-03-18T08:42:33.090Z,100776.28
2023-03-18T08:47:35.463Z,100671.19
2023-03-18T08:52:41.508Z,101219.38
2023-03-18T08:57:43.785Z,101189.25
2023-03-18T09:02:46.473Z,101152.16
2023-03-18T09:07:48.694Z,101209.00
2023-03-18T09:12:51.095Z,101147.94
2023-03-18T09:18:09.971Z,101209.13
2023-03-18T09:23:14.297Z,101097.03
2023-03-18T09:28:16.928Z,101200.03
2023-03-18T09:33:19.854Z,101047.25
2023-03-18T09:38:22.778Z,101161.19
2023-03-18T09:43:29.698Z,101182.97
2023-03-18T09:48:44.468Z,101183.50
2023-03-18T09:53:54.802Z,101100.47
2023-03-18T09:59:07.641Z,101031.41
2023-03-18T10:04:20.983Z,101115.25
2023-03-18T10:09:34.675Z,100978.53
2023-03-18T10:14:49.564Z,101160.22
2023-03-18T10:20:04.161Z,101102.94
2023-03-18T10:25:29.610Z,101142.75
2023-03-18T10:30:53.455Z,101134.94
2023-03-18T10:36:02.309Z,101038.94
2023-03-18T10:41:17.815Z,101017.13
2023-03-18T10:46:22.228Z,101059.78
2023-03-18T10:51:40.413Z,101117.19
2023-03-18T10:56:43.239Z,101095.97
2023-03-18T11:01:47.786Z,101001.81
2023-03-18T11:06:57.958Z,101083.91
2023-03-18T11:12:26.012Z,101102.44
2023-03-18T11:17:37.138Z,101085.59
2023-03-18T11:22:45.333Z,101008.47
2023-03-18T11:27:53.355Z,101008.75
2023-03-18T11:33:04.441Z,101097.75
2023-03-18T11:38:07.785Z,101091.97
2023-03-18T11:43:20.575Z,101083.75
2023-03-18T11:48:37.291Z,101025.28
2023-03-18T11:53:47.220Z,101079.38
2023-03-18T11:59:27.343Z,101028.78
2023-03-18T12:04:45.903Z,101071.00
2023-03-18T12:10:00.764Z,101061.44
2023-03-18T12:15:22.075Z,101065.00
2023-03-18T12:20:33.691Z,101056.09
2023-03-18T12:26:10.691Z,101053.81
2023-03-18T12:31:30.929Z,101050.09
2023-03-18T12:36:50.457Z,100976.53
2023-03-18T12:41:58.863Z,101036.13
2023-03-18T12:47:16.929Z,100999.78
2023-03-18T12:52:44.435Z,100907.09
2023-03-18T12:57:50.779Z,100960.38
2023-03-18T13:03:00.557Z,101018.50
2023-03-18T13:08:36.953Z,101014.50
2023-03-18T13:13:44.237Z,100996.06
2023-03-18T13:18:51.925Z,101020.03
2023-03-18T13:24:14.106Z,101013.00
2023-03-18T13:29:45.154Z,100929.09
2023-03-18T13:35:26.233Z,101004.00
2023-03-18T13:40:39.967Z,100999.41
2023-03-18T13:45:46.880Z,100941.22
2023-03-18T13:50:51.709Z,100968.47
2023-03-18T13:56:03.855Z,100982.56
2023-03-18T14:01:28.888Z,100925.41
2023-03-18T14:06:37.440Z,100972.25
2023-03-18T14:11:50.604Z,100867.09
2023-03-18T14:16:53.554Z,100921.97
2023-03-18T14:22:07.796Z,100952.91
2023-03-18T14:27:17.746Z,100970.44
2023-03-18T14:32:23.411Z,100965.78
2023-03-18T14:37:29.711Z,100922.47
2023-03-18T14:42:37.427Z,100961.84
2023-03-18T14:47:52.606Z,100948.75
2023-03-18T14:53:21.027Z,100966.56
2023-03-18T14:58:24.484Z,100917.88
2023-03-18T15:03:31.527Z,100967.84
2023-03-18T15:08:48.265Z,100855.81
2023-03-18T15:13:54.893Z,100912.09
2023-03-18T15:18:57.181Z,100932.22
2023-03-18T15:24:04.957Z,100953.09
2023-03-18T15:29:26.023Z,100952.09
2023-03-18T15:34:31.089Z,100953.72
2023-03-18T15:39:37.879Z,100946.13
2023-03-18T15:44:40.900Z,100938.56
2023-03-18T15:49:50.773Z,100850.19
2023-03-18T15:54:53.756Z,100899.56
2023-03-18T15:59:56.219Z,100919.84
2023-03-18T16:05:20.947Z,100947.88
2023-03-18T16:10:26.296Z,100800.69
2023-03-18T16:15:30.024Z,100938.94
2023-03-18T16:20:33.732Z,100421.06
2023-03-18T16:25:37.090Z,100436.59
2023-03-18T16:30:41.070Z,100952.13
2023-03-18T16:35:44.161Z,100663.66
2023-03-18T16:40:47.031Z,100486.75
2023-03-18T16:45:51.049Z,100522.28
2023-03-18T16:50:53.692Z,100944.88
2023-03-18T16:55:59.998Z,100749.03
2023-03-18T17:01:06.546Z,100763.31
2023-03-18T17:06:10.141Z,100769.78
2023-03-18T17:11:18.528Z,100765.94
2023-03-18T17:16:21.401Z,100614.78
2023-03-18T17:21:24.133Z,100679.53
2023-03-18T17:26:28.907Z,100859.78
2023-03-18T17:31:31.400Z,100811.25
2023-03-18T17:36:33.896Z,100837.47
2023-03-18T17:41:36.409Z,100919.75
2023-03-18T17:46:38.971Z,100777.22
2023-03-18T17:51:41.911Z,100881.88
2023-03-18T17:56:44.860Z,100790.63
2023-03-18T18:01:49.031Z,100916.13
2023-03-18T18:06:51.810Z,100914.59
2023-03-18T18:11:54.618Z,100903.91
2023-03-18T18:16:57.288Z,100902.00
2023-03-18T18:22:03.923Z,100768.09
2023-03-18T18:27:06.583Z,100817.47
2023-03-18T18:32:09.341Z,100906.41
2023-03-18T18:37:12.292Z,100841.06
2023-03-18T18:42:14.933Z,100919.63
2023-03-18T18:47:20.821Z,100922.34
2023-03-18T18:52:29.278Z,100850.22
2023-03-18T18:57:32.487Z,100912.72
2023-03-18T19:02:43.549Z,100914.97
2023-03-18T19:07:46.826Z,100900.91
2023-03-18T19:12:52.830Z,100695.00
2023-03-18T19:17:55.507Z,100838.41
2023-03-18T19:22:58.006Z,100800.91
2023-03-18T19:28:01.005Z,100782.06
2023-03-18T19:33:06.391Z,100854.34
2023-03-18T19:38:16.490Z,100725.28
2023-03-18T19:43:21.784Z,100803.66
2023-03-18T19:48:25.202Z,100876.63
2023-03-18T19:53:31.308Z,100814.56
2023-03-18T19:58:33.758Z,100871.56
2023-03-18T20:03:36.237Z,100834.16
2023-03-18T20:08:41.270Z,100850.53
2023-03-18T20:13:43.889Z,100864.69
2023-03-18T20:18:46.555Z,100859.56
2023-03-18T20:23:49.814Z,100860.91
2023-03-18T20:28:55.829Z,100810.22
2023-03-18T20:33:58.162Z,100686.44
2023-03-18T20:39:04.330Z,100839.25
2023-03-18T20:44:06.711Z,100797.56
2023-03-18T20:49:09.807Z,100842.91
2023-03-18T20:54:18.472Z,100825.41
2023-03-18T20:59:21.102Z,100841.81
2023-03-18T21:04:23.522Z,100755.16
2023-03-18T21:09:25.948Z,100757.63
2023-03-18T21:14:28.326Z,100847.06
2023-03-18T21:19:30.714Z,100794.91
2023-03-18T21:24:33.065Z,100825.09
2023-03-18T21:29:35.422Z,100691.59
2023-03-18T21:34:37.872Z,100751.72
2023-03-18T21:39:41.760Z,100788.03
2023-03-18T21:44:53.644Z,100774.88
2023-03-18T21:49:55.932Z,100695.50
2023-03-18T21:54:58.990Z,100717.19
2023-03-18T22:00:01.543Z,100748.59
2023-03-18T22:05:10.700Z,100817.53
2023-03-18T22:10:21.670Z,100791.25
2023-03-18T22:15:23.910Z,100813.88
2023-03-18T22:20:26.794Z,100821.13
2023-03-18T22:25:30.701Z,100806.22
2023-03-18T22:30:33.918Z,100809.31
2023-03-18T22:35:36.682Z,100798.50
2023-03-18T22:40:40.053Z,100779.03
2023-03-18T22:45:42.298Z,100689.28
2023-03-18T22:50:44.685Z,100641.97
2023-03-18T22:55:47.370Z,100770.13
2023-03-18T23:00:50.302Z,100794.63
2023-03-18T23:05:54.128Z,100655.66
2023-03-18T23:10:57.710Z,100623.22
2023-03-18T23:16:01.287Z,100661.97
2023-03-18T23:21:04.166Z,100777.50
2023-03-18T23:26:06.580Z,100331.34
2023-03-18T23:31:09.596Z,100693.41
2023-03-18T23:36:12.470Z,100741.63
2023-03-18T23:41:15.002Z,100707.75
2023-03-18T23:46:17.306Z,100639.94
2023-03-18T23:51:19.671Z,100704.63
2023-03-18T23:56:21.851Z,100661.88
